sensor_id;sensor_type;location;lat;lon;timestamp;P1;durP1;ratioP1;P2;durP2;ratioP2
10945;SDS011;5525;42.648;23.368;2023-09-19T00:00:15;5.03;;;4.00;;
10945;SDS011;5525;42.648;23.368;2023-09-19T00:02:45;5.05;;;3.90;;
10945;SDS011;5525;42.648;23.368;2023-09-19T00:05:13;5.97;;;4.25;;
10945;SDS011;5525;42.648;23.368;2023-09-19T00:07:40;5.38;;;4.05;;
10945;SDS011;5525;42.648;23.368;2023-09-19T00:10:07;4.88;;;3.92;;
10945;SDS011;5525;42.648;23.368;2023-09-19T00:12:35;7.43;;;4.15;;
10945;SDS011;5525;42.648;23.368;2023-09-19T00:15:01;5.97;;;4.15;;
10945;SDS011;5525;42.648;23.368;2023-09-19T00:17:30;5.68;;;3.95;;
10945;SDS011;5525;42.648;23.368;2023-09-19T00:19:58;5.43;;;4.15;;
10945;SDS011;5525;42.648;23.368;2023-09-19T00:22:32;6.00;;;4.47;;
10945;SDS011;5525;42.648;23.368;2023-09-19T00:24:59;6.00;;;4.43;;
10945;SDS011;5525;42.648;23.368;2023-09-19T00:27:26;5.05;;;4.32;;
10945;SDS011;5525;42.648;23.368;2023-09-19T00:29:53;6.38;;;4.57;;
10945;SDS011;5525;42.648;23.368;2023-09-19T00:32:19;4.53;;;4.10;;
10945;SDS011;5525;42.648;23.368;2023-09-19T00:34:46;4.95;;;4.55;;
10945;SDS011;5525;42.648;23.368;2023-09-19T00:37:14;6.57;;;4.35;;
10945;SDS011;5525;42.648;23.368;2023-09-19T00:39:43;5.00;;;4.47;;
10945;SDS011;5525;42.648;23.368;2023-09-19T00:42:09;5.85;;;4.32;;
10945;SDS011;5525;42.648;23.368;2023-09-19T00:44:45;4.82;;;4.32;;
10945;SDS011;5525;42.648;23.368;2023-09-19T00:47:12;5.60;;;4.68;;
10945;SDS011;5525;42.648;23.368;2023-09-19T00:49:42;5.60;;;4.18;;
10945;SDS011;5525;42.648;23.368;2023-09-19T00:52:09;6.15;;;4.43;;
10945;SDS011;5525;42.648;23.368;2023-09-19T00:54:38;6.35;;;4.45;;
10945;SDS011;5525;42.648;23.368;2023-09-19T00:57:05;5.47;;;4.25;;
10945;SDS011;5525;42.648;23.368;2023-09-19T00:59:33;6.03;;;4.32;;
10945;SDS011;5525;42.648;23.368;2023-09-19T01:02:00;6.07;;;4.10;;
10945;SDS011;5525;42.648;23.368;2023-09-19T01:04:28;5.25;;;4.40;;
10945;SDS011;5525;42.648;23.368;2023-09-19T01:06:55;5.55;;;4.30;;
10945;SDS011;5525;42.648;23.368;2023-09-19T01:09:22;5.32;;;4.38;;
10945;SDS011;5525;42.648;23.368;2023-09-19T01:11:51;6.03;;;4.78;;
10945;SDS011;5525;42.648;23.368;2023-09-19T01:14:25;4.85;;;4.38;;
10945;SDS011;5525;42.648;23.368;2023-09-19T01:17:00;5.05;;;4.35;;
10945;SDS011;5525;42.648;23.368;2023-09-19T01:22:37;6.15;;;4.50;;
10945;SDS011;5525;42.648;23.368;2023-09-19T01:28:20;6.07;;;4.22;;
10945;SDS011;5525;42.648;23.368;2023-09-19T01:30:57;5.35;;;4.80;;
10945;SDS011;5525;42.648;23.368;2023-09-19T01:33:28;5.20;;;4.50;;
10945;SDS011;5525;42.648;23.368;2023-09-19T01:35:59;5.20;;;4.68;;
10945;SDS011;5525;42.648;23.368;2023-09-19T01:38:25;6.85;;;5.30;;
10945;SDS011;5525;42.648;23.368;2023-09-19T01:40:56;7.88;;;5.20;;
10945;SDS011;5525;42.648;23.368;2023-09-19T01:43:31;7.93;;;5.30;;
10945;SDS011;5525;42.648;23.368;2023-09-19T01:46:08;6.05;;;4.78;;
10945;SDS011;5525;42.648;23.368;2023-09-19T01:48:40;6.28;;;4.90;;
10945;SDS011;5525;42.648;23.368;2023-09-19T01:51:13;6.80;;;5.10;;
10945;SDS011;5525;42.648;23.368;2023-09-19T01:53:49;6.30;;;5.20;;
10945;SDS011;5525;42.648;23.368;2023-09-19T01:56:25;6.57;;;5.13;;
10945;SDS011;5525;42.648;23.368;2023-09-19T01:58:59;6.93;;;5.13;;
10945;SDS011;5525;42.648;23.368;2023-09-19T02:01:31;5.88;;;5.15;;
10945;SDS011;5525;42.648;23.368;2023-09-19T02:03:59;7.35;;;4.93;;
10945;SDS011;5525;42.648;23.368;2023-09-19T02:06:27;5.55;;;4.95;;
10945;SDS011;5525;42.648;23.368;2023-09-19T02:08:54;6.90;;;4.93;;
10945;SDS011;5525;42.648;23.368;2023-09-19T02:11:22;6.63;;;5.13;;
10945;SDS011;5525;42.648;23.368;2023-09-19T02:13:49;5.45;;;4.88;;
10945;SDS011;5525;42.648;23.368;2023-09-19T02:16:19;7.70;;;4.93;;
10945;SDS011;5525;42.648;23.368;2023-09-19T02:18:47;7.38;;;5.00;;
10945;SDS011;5525;42.648;23.368;2023-09-19T02:21:14;5.82;;;5.32;;
10945;SDS011;5525;42.648;23.368;2023-09-19T02:23:42;9.65;;;6.47;;
10945;SDS011;5525;42.648;23.368;2023-09-19T02:26:09;10.73;;;6.35;;
10945;SDS011;5525;42.648;23.368;2023-09-19T02:28:36;7.00;;;5.20;;
10945;SDS011;5525;42.648;23.368;2023-09-19T02:31:03;6.18;;;5.47;;
10945;SDS011;5525;42.648;23.368;2023-09-19T02:33:31;6.82;;;4.93;;
10945;SDS011;5525;42.648;23.368;2023-09-19T02:36:00;7.82;;;5.43;;
10945;SDS011;5525;42.648;23.368;2023-09-19T02:38:28;7.15;;;5.50;;
10945;SDS011;5525;42.648;23.368;2023-09-19T02:40:56;6.30;;;5.32;;
10945;SDS011;5525;42.648;23.368;2023-09-19T02:43:23;7.00;;;5.65;;
10945;SDS011;5525;42.648;23.368;2023-09-19T02:45:50;6.57;;;5.07;;
10945;SDS011;5525;42.648;23.368;2023-09-19T02:48:18;6.03;;;5.43;;
10945;SDS011;5525;42.648;23.368;2023-09-19T02:50:45;7.13;;;5.00;;
10945;SDS011;5525;42.648;23.368;2023-09-19T02:53:13;7.18;;;5.30;;
10945;SDS011;5525;42.648;23.368;2023-09-19T02:55:40;5.72;;;5.15;;
10945;SDS011;5525;42.648;23.368;2023-09-19T02:58:08;5.97;;;5.38;;
10945;SDS011;5525;42.648;23.368;2023-09-19T03:00:36;5.70;;;4.55;;
10945;SDS011;5525;42.648;23.368;2023-09-19T03:03:04;6.55;;;5.05;;
10945;SDS011;5525;42.648;23.368;2023-09-19T03:05:33;8.18;;;5.30;;
10945;SDS011;5525;42.648;23.368;2023-09-19T03:08:00;7.10;;;5.43;;
10945;SDS011;5525;42.648;23.368;2023-09-19T03:10:29;8.32;;;5.65;;
10945;SDS011;5525;42.648;23.368;2023-09-19T03:12:56;8.82;;;6.50;;
10945;SDS011;5525;42.648;23.368;2023-09-19T03:15:23;5.60;;;4.93;;
10945;SDS011;5525;42.648;23.368;2023-09-19T03:17:49;7.70;;;5.28;;
10945;SDS011;5525;42.648;23.368;2023-09-19T03:20:18;7.82;;;6.00;;
10945;SDS011;5525;42.648;23.368;2023-09-19T03:22:46;8.15;;;5.07;;
10945;SDS011;5525;42.648;23.368;2023-09-19T03:25:13;6.82;;;5.15;;
10945;SDS011;5525;42.648;23.368;2023-09-19T03:27:42;7.38;;;5.68;;
10945;SDS011;5525;42.648;23.368;2023-09-19T03:30:08;6.55;;;5.63;;
10945;SDS011;5525;42.648;23.368;2023-09-19T03:32:43;6.13;;;5.53;;
10945;SDS011;5525;42.648;23.368;2023-09-19T03:35:10;8.05;;;5.90;;
10945;SDS011;5525;42.648;23.368;2023-09-19T03:37:39;8.30;;;5.38;;
10945;SDS011;5525;42.648;23.368;2023-09-19T03:40:06;6.75;;;5.60;;
10945;SDS011;5525;42.648;23.368;2023-09-19T03:42:37;7.10;;;5.57;;
10945;SDS011;5525;42.648;23.368;2023-09-19T03:45:06;10.55;;;5.93;;
10945;SDS011;5525;42.648;23.368;2023-09-19T03:47:37;7.47;;;5.40;;
10945;SDS011;5525;42.648;23.368;2023-09-19T03:50:04;7.35;;;5.30;;
10945;SDS011;5525;42.648;23.368;2023-09-19T03:52:32;6.25;;;5.65;;
10945;SDS011;5525;42.648;23.368;2023-09-19T03:54:59;8.57;;;5.18;;
10945;SDS011;5525;42.648;23.368;2023-09-19T03:57:26;9.02;;;6.90;;
10945;SDS011;5525;42.648;23.368;2023-09-19T03:59:53;8.48;;;5.65;;
10945;SDS011;5525;42.648;23.368;2023-09-19T04:02:22;8.43;;;6.00;;
10945;SDS011;5525;42.648;23.368;2023-09-19T04:04:49;11.13;;;6.45;;
10945;SDS011;5525;42.648;23.368;2023-09-19T04:07:17;9.68;;;6.15;;
10945;SDS011;5525;42.648;23.368;2023-09-19T04:09:44;9.50;;;6.63;;
10945;SDS011;5525;42.648;23.368;2023-09-19T04:12:11;10.25;;;7.63;;
10945;SDS011;5525;42.648;23.368;2023-09-19T04:14:41;11.00;;;7.57;;
10945;SDS011;5525;42.648;23.368;2023-09-19T04:17:08;9.55;;;6.82;;
10945;SDS011;5525;42.648;23.368;2023-09-19T04:19:36;7.93;;;6.78;;
10945;SDS011;5525;42.648;23.368;2023-09-19T04:22:03;9.38;;;6.68;;
10945;SDS011;5525;42.648;23.368;2023-09-19T04:24:30;9.38;;;6.97;;
10945;SDS011;5525;42.648;23.368;2023-09-19T04:26:57;10.10;;;6.93;;
10945;SDS011;5525;42.648;23.368;2023-09-19T04:29:24;9.05;;;6.97;;
10945;SDS011;5525;42.648;23.368;2023-09-19T04:31:54;10.27;;;7.45;;
10945;SDS011;5525;42.648;23.368;2023-09-19T04:34:21;9.60;;;7.10;;
10945;SDS011;5525;42.648;23.368;2023-09-19T04:36:50;14.10;;;7.30;;
10945;SDS011;5525;42.648;23.368;2023-09-19T04:39:17;10.70;;;7.78;;
10945;SDS011;5525;42.648;23.368;2023-09-19T04:41:44;9.77;;;7.60;;
10945;SDS011;5525;42.648;23.368;2023-09-19T04:44:13;12.20;;;8.05;;
10945;SDS011;5525;42.648;23.368;2023-09-19T04:46:39;12.35;;;7.53;;
10945;SDS011;5525;42.648;23.368;2023-09-19T04:49:06;12.77;;;7.80;;
10945;SDS011;5525;42.648;23.368;2023-09-19T04:51:33;10.68;;;7.10;;
10945;SDS011;5525;42.648;23.368;2023-09-19T04:54:02;7.82;;;6.88;;
10945;SDS011;5525;42.648;23.368;2023-09-19T04:56:30;11.93;;;8.07;;
10945;SDS011;5525;42.648;23.368;2023-09-19T04:58:57;14.35;;;8.88;;
10945;SDS011;5525;42.648;23.368;2023-09-19T05:01:25;11.63;;;8.20;;
10945;SDS011;5525;42.648;23.368;2023-09-19T05:03:52;12.25;;;7.25;;
10945;SDS011;5525;42.648;23.368;2023-09-19T05:06:19;9.48;;;7.13;;
10945;SDS011;5525;42.648;23.368;2023-09-19T05:08:46;9.82;;;7.40;;
10945;SDS011;5525;42.648;23.368;2023-09-19T05:11:16;16.77;;;7.50;;
10945;SDS011;5525;42.648;23.368;2023-09-19T05:13:43;9.80;;;7.00;;
10945;SDS011;5525;42.648;23.368;2023-09-19T05:16:10;10.25;;;7.55;;
10945;SDS011;5525;42.648;23.368;2023-09-19T05:18:37;12.63;;;7.30;;
10945;SDS011;5525;42.648;23.368;2023-09-19T05:21:04;8.32;;;6.60;;
10945;SDS011;5525;42.648;23.368;2023-09-19T05:23:31;18.20;;;7.00;;
10945;SDS011;5525;42.648;23.368;2023-09-19T05:25:57;8.48;;;6.30;;
10945;SDS011;5525;42.648;23.368;2023-09-19T05:28:26;6.50;;;5.55;;
10945;SDS011;5525;42.648;23.368;2023-09-19T05:30:53;7.47;;;5.78;;
10945;SDS011;5525;42.648;23.368;2023-09-19T05:33:19;7.43;;;5.95;;
10945;SDS011;5525;42.648;23.368;2023-09-19T05:35:47;9.00;;;6.00;;
10945;SDS011;5525;42.648;23.368;2023-09-19T05:38:14;8.40;;;6.03;;
10945;SDS011;5525;42.648;23.368;2023-09-19T05:40:44;8.55;;;5.80;;
10945;SDS011;5525;42.648;23.368;2023-09-19T05:43:11;6.63;;;5.95;;
10945;SDS011;5525;42.648;23.368;2023-09-19T05:45:40;7.55;;;5.30;;
10945;SDS011;5525;42.648;23.368;2023-09-19T05:48:07;6.82;;;5.40;;
10945;SDS011;5525;42.648;23.368;2023-09-19T05:50:36;7.88;;;5.22;;
10945;SDS011;5525;42.648;23.368;2023-09-19T05:53:03;7.97;;;6.07;;
10945;SDS011;5525;42.648;23.368;2023-09-19T05:55:30;8.77;;;5.78;;
10945;SDS011;5525;42.648;23.368;2023-09-19T05:57:57;6.85;;;5.30;;
10945;SDS011;5525;42.648;23.368;2023-09-19T06:00:24;7.05;;;5.18;;
10945;SDS011;5525;42.648;23.368;2023-09-19T06:02:54;7.40;;;5.03;;
10945;SDS011;5525;42.648;23.368;2023-09-19T06:05:23;9.00;;;5.15;;
10945;SDS011;5525;42.648;23.368;2023-09-19T06:07:51;7.25;;;4.80;;
10945;SDS011;5525;42.648;23.368;2023-09-19T06:10:19;6.68;;;4.90;;
10945;SDS011;5525;42.648;23.368;2023-09-19T06:12:48;5.53;;;5.00;;
10945;SDS011;5525;42.648;23.368;2023-09-19T06:15:15;9.52;;;4.90;;
10945;SDS011;5525;42.648;23.368;2023-09-19T06:17:46;7.65;;;4.97;;
10945;SDS011;5525;42.648;23.368;2023-09-19T06:20:14;8.20;;;5.40;;
10945;SDS011;5525;42.648;23.368;2023-09-19T06:22:42;7.70;;;5.25;;
10945;SDS011;5525;42.648;23.368;2023-09-19T06:25:10;7.18;;;5.47;;
10945;SDS011;5525;42.648;23.368;2023-09-19T06:27:38;8.95;;;5.35;;
10945;SDS011;5525;42.648;23.368;2023-09-19T06:30:06;15.70;;;5.90;;
10945;SDS011;5525;42.648;23.368;2023-09-19T06:32:34;6.43;;;5.03;;
10945;SDS011;5525;42.648;23.368;2023-09-19T06:35:01;10.98;;;5.20;;
10945;SDS011;5525;42.648;23.368;2023-09-19T06:37:29;7.60;;;5.10;;
10945;SDS011;5525;42.648;23.368;2023-09-19T06:39:56;5.53;;;4.72;;
10945;SDS011;5525;42.648;23.368;2023-09-19T06:42:23;4.93;;;4.47;;
10945;SDS011;5525;42.648;23.368;2023-09-19T06:44:50;6.78;;;4.43;;
10945;SDS011;5525;42.648;23.368;2023-09-19T06:47:16;6.40;;;4.75;;
10945;SDS011;5525;42.648;23.368;2023-09-19T06:49:43;9.50;;;4.63;;
10945;SDS011;5525;42.648;23.368;2023-09-19T06:52:10;9.20;;;4.63;;
10945;SDS011;5525;42.648;23.368;2023-09-19T06:54:38;9.07;;;5.70;;
10945;SDS011;5525;42.648;23.368;2023-09-19T06:57:06;7.95;;;4.88;;
10945;SDS011;5525;42.648;23.368;2023-09-19T06:59:34;6.50;;;5.75;;
10945;SDS011;5525;42.648;23.368;2023-09-19T07:02:02;7.70;;;4.80;;
10945;SDS011;5525;42.648;23.368;2023-09-19T07:04:31;5.07;;;4.57;;
10945;SDS011;5525;42.648;23.368;2023-09-19T07:06:58;5.80;;;4.38;;
10945;SDS011;5525;42.648;23.368;2023-09-19T07:09:25;7.97;;;4.40;;
10945;SDS011;5525;42.648;23.368;2023-09-19T07:11:54;5.43;;;3.92;;
10945;SDS011;5525;42.648;23.368;2023-09-19T07:14:21;5.75;;;4.30;;
10945;SDS011;5525;42.648;23.368;2023-09-19T07:16:47;7.03;;;6.00;;
10945;SDS011;5525;42.648;23.368;2023-09-19T07:19:15;6.47;;;5.65;;
10945;SDS011;5525;42.648;23.368;2023-09-19T07:21:42;8.70;;;5.93;;
10945;SDS011;5525;42.648;23.368;2023-09-19T07:24:09;8.73;;;5.78;;
10945;SDS011;5525;42.648;23.368;2023-09-19T07:26:36;8.63;;;5.13;;
10945;SDS011;5525;42.648;23.368;2023-09-19T07:29:04;8.73;;;5.85;;
10945;SDS011;5525;42.648;23.368;2023-09-19T07:31:32;8.43;;;6.85;;
10945;SDS011;5525;42.648;23.368;2023-09-19T07:33:59;13.80;;;7.05;;
10945;SDS011;5525;42.648;23.368;2023-09-19T07:36:29;11.35;;;6.85;;
10945;SDS011;5525;42.648;23.368;2023-09-19T07:38:55;8.48;;;6.57;;
10945;SDS011;5525;42.648;23.368;2023-09-19T07:41:23;12.55;;;6.43;;
10945;SDS011;5525;42.648;23.368;2023-09-19T07:43:50;10.00;;;6.53;;
10945;SDS011;5525;42.648;23.368;2023-09-19T07:46:18;7.72;;;5.57;;
10945;SDS011;5525;42.648;23.368;2023-09-19T07:48:46;8.18;;;5.80;;
10945;SDS011;5525;42.648;23.368;2023-09-19T07:51:14;6.20;;;5.32;;
10945;SDS011;5525;42.648;23.368;2023-09-19T07:53:41;10.10;;;5.57;;
10945;SDS011;5525;42.648;23.368;2023-09-19T07:56:09;9.50;;;5.75;;
10945;SDS011;5525;42.648;23.368;2023-09-19T07:58:38;7.95;;;6.00;;
10945;SDS011;5525;42.648;23.368;2023-09-19T08:01:09;6.85;;;5.00;;
10945;SDS011;5525;42.648;23.368;2023-09-19T08:03:40;7.30;;;5.32;;
10945;SDS011;5525;42.648;23.368;2023-09-19T08:06:08;10.43;;;5.70;;
10945;SDS011;5525;42.648;23.368;2023-09-19T08:08:35;11.90;;;9.15;;
10945;SDS011;5525;42.648;23.368;2023-09-19T08:11:02;6.10;;;5.45;;
10945;SDS011;5525;42.648;23.368;2023-09-19T08:13:35;8.40;;;5.32;;
10945;SDS011;5525;42.648;23.368;2023-09-19T08:16:03;6.70;;;5.43;;
10945;SDS011;5525;42.648;23.368;2023-09-19T08:18:30;5.82;;;5.22;;
10945;SDS011;5525;42.648;23.368;2023-09-19T08:20:58;7.00;;;5.00;;
10945;SDS011;5525;42.648;23.368;2023-09-19T08:23:25;9.48;;;5.60;;
10945;SDS011;5525;42.648;23.368;2023-09-19T08:25:56;12.98;;;5.47;;
10945;SDS011;5525;42.648;23.368;2023-09-19T08:28:23;7.18;;;5.30;;
10945;SDS011;5525;42.648;23.368;2023-09-19T08:30:49;8.60;;;5.20;;
10945;SDS011;5525;42.648;23.368;2023-09-19T08:33:18;8.65;;;5.03;;
10945;SDS011;5525;42.648;23.368;2023-09-19T08:35:46;7.40;;;4.97;;
10945;SDS011;5525;42.648;23.368;2023-09-19T08:38:14;5.95;;;4.80;;
10945;SDS011;5525;42.648;23.368;2023-09-19T08:40:40;7.75;;;4.90;;
10945;SDS011;5525;42.648;23.368;2023-09-19T08:43:08;12.48;;;5.20;;
10945;SDS011;5525;42.648;23.368;2023-09-19T08:45:35;5.63;;;4.47;;
10945;SDS011;5525;42.648;23.368;2023-09-19T08:48:08;6.03;;;4.72;;
10945;SDS011;5525;42.648;23.368;2023-09-19T08:50:47;5.78;;;4.47;;
10945;SDS011;5525;42.648;23.368;2023-09-19T08:53:19;7.25;;;4.32;;
10945;SDS011;5525;42.648;23.368;2023-09-19T08:55:52;8.20;;;4.40;;
10945;SDS011;5525;42.648;23.368;2023-09-19T08:58:21;6.00;;;4.15;;
10945;SDS011;5525;42.648;23.368;2023-09-19T09:00:54;6.30;;;4.22;;
10945;SDS011;5525;42.648;23.368;2023-09-19T09:03:47;5.28;;;3.97;;
10945;SDS011;5525;42.648;23.368;2023-09-19T09:06:15;6.53;;;4.45;;
10945;SDS011;5525;42.648;23.368;2023-09-19T09:08:45;9.00;;;4.72;;
10945;SDS011;5525;42.648;23.368;2023-09-19T09:11:12;7.78;;;4.88;;
10945;SDS011;5525;42.648;23.368;2023-09-19T09:13:41;5.95;;;4.70;;
10945;SDS011;5525;42.648;23.368;2023-09-19T09:16:09;8.73;;;4.22;;
10945;SDS011;5525;42.648;23.368;2023-09-19T09:18:38;5.82;;;4.65;;
10945;SDS011;5525;42.648;23.368;2023-09-19T09:21:05;5.10;;;3.83;;
10945;SDS011;5525;42.648;23.368;2023-09-19T09:23:31;5.90;;;4.45;;
10945;SDS011;5525;42.648;23.368;2023-09-19T09:26:00;7.43;;;4.40;;
10945;SDS011;5525;42.648;23.368;2023-09-19T09:28:30;4.78;;;3.92;;
10945;SDS011;5525;42.648;23.368;2023-09-19T09:30:58;8.52;;;4.88;;
10945;SDS011;5525;42.648;23.368;2023-09-19T09:33:27;9.20;;;4.90;;
10945;SDS011;5525;42.648;23.368;2023-09-19T09:35:55;7.70;;;4.43;;
10945;SDS011;5525;42.648;23.368;2023-09-19T09:38:24;4.47;;;3.97;;
10945;SDS011;5525;42.648;23.368;2023-09-19T09:40:53;5.85;;;4.38;;
10945;SDS011;5525;42.648;23.368;2023-09-19T09:43:27;6.78;;;4.20;;
10945;SDS011;5525;42.648;23.368;2023-09-19T09:46:09;7.20;;;5.00;;
10945;SDS011;5525;42.648;23.368;2023-09-19T09:48:58;9.77;;;4.90;;
10945;SDS011;5525;42.648;23.368;2023-09-19T09:51:44;7.35;;;4.85;;
10945;SDS011;5525;42.648;23.368;2023-09-19T09:54:14;5.75;;;4.82;;
10945;SDS011;5525;42.648;23.368;2023-09-19T09:56:55;8.07;;;4.35;;
10945;SDS011;5525;42.648;23.368;2023-09-19T10:02:21;8.25;;;5.45;;
10945;SDS011;5525;42.648;23.368;2023-09-19T10:04:54;4.30;;;3.90;;
10945;SDS011;5525;42.648;23.368;2023-09-19T10:07:34;5.63;;;4.55;;
10945;SDS011;5525;42.648;23.368;2023-09-19T10:10:03;6.85;;;4.35;;
10945;SDS011;5525;42.648;23.368;2023-09-19T10:12:42;6.97;;;4.55;;
10945;SDS011;5525;42.648;23.368;2023-09-19T10:15:12;6.75;;;4.90;;
10945;SDS011;5525;42.648;23.368;2023-09-19T10:17:41;8.18;;;5.22;;
10945;SDS011;5525;42.648;23.368;2023-09-19T10:20:11;10.60;;;5.03;;
10945;SDS011;5525;42.648;23.368;2023-09-19T10:22:57;5.57;;;4.60;;
10945;SDS011;5525;42.648;23.368;2023-09-19T10:25:26;6.93;;;4.90;;
10945;SDS011;5525;42.648;23.368;2023-09-19T10:27:55;5.95;;;4.57;;
10945;SDS011;5525;42.648;23.368;2023-09-19T10:30:25;6.18;;;4.70;;
10945;SDS011;5525;42.648;23.368;2023-09-19T10:32:56;5.32;;;4.47;;
10945;SDS011;5525;42.648;23.368;2023-09-19T10:35:25;5.15;;;4.60;;
10945;SDS011;5525;42.648;23.368;2023-09-19T10:37:52;6.55;;;4.45;;
10945;SDS011;5525;42.648;23.368;2023-09-19T10:40:22;6.43;;;5.10;;
10945;SDS011;5525;42.648;23.368;2023-09-19T10:42:56;5.72;;;4.93;;
10945;SDS011;5525;42.648;23.368;2023-09-19T10:45:30;6.65;;;5.18;;
10945;SDS011;5525;42.648;23.368;2023-09-19T10:47:58;8.32;;;5.32;;
10945;SDS011;5525;42.648;23.368;2023-09-19T10:50:29;5.32;;;4.80;;
10945;SDS011;5525;42.648;23.368;2023-09-19T10:52:59;7.40;;;5.00;;
10945;SDS011;5525;42.648;23.368;2023-09-19T10:55:31;5.35;;;4.85;;
10945;SDS011;5525;42.648;23.368;2023-09-19T10:58:00;8.75;;;4.78;;
10945;SDS011;5525;42.648;23.368;2023-09-19T11:00:31;7.13;;;5.00;;
10945;SDS011;5525;42.648;23.368;2023-09-19T11:03:18;6.10;;;4.47;;
10945;SDS011;5525;42.648;23.368;2023-09-19T11:06:04;8.43;;;5.32;;
10945;SDS011;5525;42.648;23.368;2023-09-19T11:11:39;5.38;;;4.88;;
10945;SDS011;5525;42.648;23.368;2023-09-19T11:14:15;5.15;;;4.65;;
10945;SDS011;5525;42.648;23.368;2023-09-19T11:20:22;6.35;;;4.82;;
10945;SDS011;5525;42.648;23.368;2023-09-19T11:23:22;5.78;;;4.68;;
10945;SDS011;5525;42.648;23.368;2023-09-19T11:25:51;6.53;;;4.82;;
10945;SDS011;5525;42.648;23.368;2023-09-19T11:28:28;5.75;;;5.25;;
10945;SDS011;5525;42.648;23.368;2023-09-19T11:30:56;7.38;;;5.18;;
10945;SDS011;5525;42.648;23.368;2023-09-19T11:33:24;10.25;;;5.30;;
10945;SDS011;5525;42.648;23.368;2023-09-19T11:36:01;6.40;;;5.00;;
10945;SDS011;5525;42.648;23.368;2023-09-19T11:41:39;6.70;;;4.50;;
10945;SDS011;5525;42.648;23.368;2023-09-19T11:47:04;6.65;;;4.65;;
10945;SDS011;5525;42.648;23.368;2023-09-19T11:49:32;5.45;;;4.95;;
10945;SDS011;5525;42.648;23.368;2023-09-19T11:52:01;5.25;;;4.55;;
10945;SDS011;5525;42.648;23.368;2023-09-19T11:54:31;4.88;;;4.32;;
10945;SDS011;5525;42.648;23.368;2023-09-19T11:56:58;6.10;;;4.63;;
10945;SDS011;5525;42.648;23.368;2023-09-19T11:59:27;6.22;;;5.60;;
10945;SDS011;5525;42.648;23.368;2023-09-19T12:01:54;6.45;;;5.07;;
10945;SDS011;5525;42.648;23.368;2023-09-19T12:04:36;7.57;;;5.18;;
10945;SDS011;5525;42.648;23.368;2023-09-19T12:07:06;6.30;;;5.00;;
10945;SDS011;5525;42.648;23.368;2023-09-19T12:09:38;7.90;;;4.70;;
10945;SDS011;5525;42.648;23.368;2023-09-19T12:14:34;6.82;;;4.40;;
10945;SDS011;5525;42.648;23.368;2023-09-19T12:17:01;5.35;;;4.85;;
10945;SDS011;5525;42.648;23.368;2023-09-19T12:19:28;5.95;;;4.60;;
10945;SDS011;5525;42.648;23.368;2023-09-19T12:21:58;8.13;;;4.60;;
10945;SDS011;5525;42.648;23.368;2023-09-19T12:24:30;6.70;;;4.80;;
10945;SDS011;5525;42.648;23.368;2023-09-19T12:27:01;6.75;;;5.00;;
10945;SDS011;5525;42.648;23.368;2023-09-19T12:29:30;6.47;;;4.85;;
10945;SDS011;5525;42.648;23.368;2023-09-19T12:31:59;5.82;;;4.72;;
10945;SDS011;5525;42.648;23.368;2023-09-19T12:34:29;7.75;;;4.70;;
10945;SDS011;5525;42.648;23.368;2023-09-19T12:37:09;5.03;;;4.32;;
10945;SDS011;5525;42.648;23.368;2023-09-19T12:39:48;6.05;;;4.88;;
10945;SDS011;5525;42.648;23.368;2023-09-19T12:42:19;7.70;;;4.65;;
10945;SDS011;5525;42.648;23.368;2023-09-19T12:44:49;5.80;;;4.40;;
10945;SDS011;5525;42.648;23.368;2023-09-19T12:47:20;6.88;;;4.70;;
10945;SDS011;5525;42.648;23.368;2023-09-19T12:50:05;5.40;;;4.90;;
10945;SDS011;5525;42.648;23.368;2023-09-19T12:52:34;5.07;;;4.68;;
10945;SDS011;5525;42.648;23.368;2023-09-19T12:55:04;5.50;;;5.00;;
10945;SDS011;5525;42.648;23.368;2023-09-19T12:57:32;5.43;;;4.55;;
10945;SDS011;5525;42.648;23.368;2023-09-19T13:00:00;5.30;;;4.63;;
10945;SDS011;5525;42.648;23.368;2023-09-19T13:02:26;8.88;;;4.78;;
10945;SDS011;5525;42.648;23.368;2023-09-19T13:04:53;7.30;;;4.82;;
10945;SDS011;5525;42.648;23.368;2023-09-19T13:10:13;4.82;;;4.43;;
10945;SDS011;5525;42.648;23.368;2023-09-19T13:12:42;7.68;;;4.78;;
10945;SDS011;5525;42.648;23.368;2023-09-19T13:15:12;7.00;;;4.50;;
10945;SDS011;5525;42.648;23.368;2023-09-19T13:17:44;5.65;;;4.30;;
10945;SDS011;5525;42.648;23.368;2023-09-19T13:20:21;7.43;;;4.38;;
10945;SDS011;5525;42.648;23.368;2023-09-19T13:22:52;5.22;;;4.70;;
10945;SDS011;5525;42.648;23.368;2023-09-19T13:25:25;5.93;;;4.28;;
10945;SDS011;5525;42.648;23.368;2023-09-19T13:27:56;5.40;;;4.75;;
10945;SDS011;5525;42.648;23.368;2023-09-19T13:30:25;5.28;;;4.60;;
10945;SDS011;5525;42.648;23.368;2023-09-19T13:33:04;7.60;;;4.80;;
10945;SDS011;5525;42.648;23.368;2023-09-19T13:35:32;11.10;;;5.22;;
10945;SDS011;5525;42.648;23.368;2023-09-19T13:37:58;6.53;;;4.97;;
10945;SDS011;5525;42.648;23.368;2023-09-19T13:40:27;8.70;;;5.68;;
10945;SDS011;5525;42.648;23.368;2023-09-19T13:43:00;6.05;;;5.07;;
10945;SDS011;5525;42.648;23.368;2023-09-19T13:45:26;6.47;;;4.88;;
10945;SDS011;5525;42.648;23.368;2023-09-19T13:47:55;8.50;;;5.00;;
10945;SDS011;5525;42.648;23.368;2023-09-19T13:50:22;6.93;;;4.75;;
10945;SDS011;5525;42.648;23.368;2023-09-19T13:52:50;5.10;;;4.60;;
10945;SDS011;5525;42.648;23.368;2023-09-19T13:55:18;6.35;;;4.80;;
10945;SDS011;5525;42.648;23.368;2023-09-19T13:57:47;5.43;;;4.60;;
10945;SDS011;5525;42.648;23.368;2023-09-19T14:00:15;9.85;;;5.03;;
10945;SDS011;5525;42.648;23.368;2023-09-19T14:02:43;5.90;;;5.05;;
10945;SDS011;5525;42.648;23.368;2023-09-19T14:05:11;6.75;;;4.93;;
10945;SDS011;5525;42.648;23.368;2023-09-19T14:07:40;5.78;;;5.13;;
10945;SDS011;5525;42.648;23.368;2023-09-19T14:10:07;6.97;;;5.60;;
10945;SDS011;5525;42.648;23.368;2023-09-19T14:12:35;6.25;;;5.13;;
10945;SDS011;5525;42.648;23.368;2023-09-19T14:15:04;5.78;;;5.20;;
10945;SDS011;5525;42.648;23.368;2023-09-19T14:17:32;9.45;;;5.55;;
10945;SDS011;5525;42.648;23.368;2023-09-19T14:19:59;5.88;;;5.38;;
10945;SDS011;5525;42.648;23.368;2023-09-19T14:22:25;11.18;;;5.25;;
10945;SDS011;5525;42.648;23.368;2023-09-19T14:24:52;8.30;;;5.15;;
10945;SDS011;5525;42.648;23.368;2023-09-19T14:27:19;6.68;;;5.28;;
10945;SDS011;5525;42.648;23.368;2023-09-19T14:29:45;5.50;;;5.00;;
10945;SDS011;5525;42.648;23.368;2023-09-19T14:32:14;5.53;;;5.05;;
10945;SDS011;5525;42.648;23.368;2023-09-19T14:34:40;5.50;;;5.00;;
10945;SDS011;5525;42.648;23.368;2023-09-19T14:37:08;8.90;;;5.25;;
10945;SDS011;5525;42.648;23.368;2023-09-19T14:39:36;7.00;;;5.72;;
10945;SDS011;5525;42.648;23.368;2023-09-19T14:42:03;8.07;;;5.47;;
10945;SDS011;5525;42.648;23.368;2023-09-19T14:44:31;5.28;;;4.60;;
10945;SDS011;5525;42.648;23.368;2023-09-19T14:46:58;6.47;;;5.80;;
10945;SDS011;5525;42.648;23.368;2023-09-19T14:49:26;6.32;;;5.07;;
10945;SDS011;5525;42.648;23.368;2023-09-19T14:51:52;7.53;;;5.18;;
10945;SDS011;5525;42.648;23.368;2023-09-19T14:54:20;6.60;;;5.30;;
10945;SDS011;5525;42.648;23.368;2023-09-19T14:56:49;7.20;;;5.22;;
10945;SDS011;5525;42.648;23.368;2023-09-19T14:59:28;7.75;;;5.60;;
10945;SDS011;5525;42.648;23.368;2023-09-19T15:01:56;6.38;;;5.32;;
10945;SDS011;5525;42.648;23.368;2023-09-19T15:04:22;6.40;;;5.38;;
10945;SDS011;5525;42.648;23.368;2023-09-19T15:06:50;8.35;;;5.90;;
10945;SDS011;5525;42.648;23.368;2023-09-19T15:09:19;9.00;;;5.10;;
10945;SDS011;5525;42.648;23.368;2023-09-19T15:11:47;8.35;;;5.45;;
10945;SDS011;5525;42.648;23.368;2023-09-19T15:14:13;7.22;;;5.55;;
10945;SDS011;5525;42.648;23.368;2023-09-19T15:16:40;6.88;;;5.47;;
10945;SDS011;5525;42.648;23.368;2023-09-19T15:19:08;8.13;;;5.97;;
10945;SDS011;5525;42.648;23.368;2023-09-19T15:21:36;6.70;;;6.00;;
10945;SDS011;5525;42.648;23.368;2023-09-19T15:24:05;8.80;;;5.88;;